Terminal Aerodrome Forecast
Issued by NWS Cleveland, OH

Home | Current Version | Previous Version | Text Only | Print | Product List | Glossary On
Versions: 1 2 3 4 5 6 7 8 9 10 11 12 13 14 15 16 17 18 19 20 21 22 23 24 25
344
FTUS41 KCLE 242340
TAFCLE
TAF
KCLE 242340Z 2500/2606 19015G25KT P6SM BKN200
     FM251100 24012KT P6SM BKN030
     FM251300 25010KT P6SM OVC018
     FM251600 27012G20KT P6SM OVC018
     FM251800 29012G20KT P6SM OVC025
     FM252200 29010G18KT P6SM BKN035=

USA.gov is the U.S. government's official web portal to all federal, state and local government web resources and services.